createdAt,value
2023-05-11T00:01:41.359Z,66.04
2023-05-11T00:04:10.930Z,65.21
2023-05-11T00:06:39.071Z,64.94
2023-05-11T00:09:07.978Z,68.88
2023-05-11T00:11:36.425Z,67.26
2023-05-11T00:14:04.954Z,65.82
2023-05-11T00:16:33.492Z,67.82
2023-05-11T00:19:01.677Z,65.75
2023-05-11T00:21:32.370Z,66.58
2023-05-11T00:24:00.644Z,66.62
2023-05-11T00:26:28.938Z,66.83
2023-05-11T00:28:56.927Z,66.37
2023-05-11T00:31:25.134Z,68.87
2023-05-11T00:33:54.505Z,66.73
2023-05-11T00:36:22.603Z,67.93
2023-05-11T00:38:53.163Z,67.09
2023-05-11T00:41:21.710Z,66.79
2023-05-11T00:43:49.964Z,67.53
2023-05-11T00:46:19.067Z,67.70
2023-05-11T00:48:47.516Z,66.23
2023-05-11T00:51:15.966Z,66.40
2023-05-11T00:53:44.146Z,64.30
2023-05-11T00:56:13.515Z,64.29
2023-05-11T00:58:41.659Z,64.88
2023-05-11T01:01:10.503Z,66.29
2023-05-11T01:03:39.279Z,64.43
2023-05-11T01:06:11.675Z,62.17
2023-05-11T01:08:45.019Z,61.61
2023-05-11T01:11:19.157Z,62.66
2023-05-11T01:13:52.366Z,64.09
2023-05-11T01:16:24.494Z,64.41
2023-05-11T01:19:02.033Z,64.49
2023-05-11T01:21:34.968Z,63.80
2023-05-11T01:24:21.317Z,61.84
2023-05-11T01:27:08.059Z,62.91
2023-05-11T01:29:59.942Z,63.98
2023-05-11T01:32:33.825Z,62.99
2023-05-11T01:35:08.518Z,64.09
2023-05-11T01:37:38.409Z,62.98
2023-05-11T01:40:14.668Z,61.32
2023-05-11T01:42:46.173Z,62.61
2023-05-11T01:45:16.583Z,60.86
2023-05-11T01:47:48.071Z,61.32
2023-05-11T01:50:18.531Z,60.62
2023-05-11T01:52:49.350Z,61.52
2023-05-11T01:55:20.611Z,60.55
2023-05-11T01:57:52.995Z,61.94
2023-05-11T02:00:22.059Z,64.47
2023-05-11T02:02:52.275Z,64.53
2023-05-11T02:05:25.019Z,65.88
2023-05-11T02:07:55.286Z,66.59
2023-05-11T02:10:27.562Z,67.00
2023-05-11T02:12:56.704Z,66.28
2023-05-11T02:15:27.105Z,67.77
2023-05-11T02:17:57.721Z,69.03
2023-05-11T02:20:26.718Z,67.98
2023-05-11T02:22:56.171Z,68.21
2023-05-11T02:25:25.407Z,66.60
2023-05-11T02:27:53.393Z,65.25
2023-05-11T02:30:21.853Z,65.10
2023-05-11T02:32:53.969Z,62.78
2023-05-11T02:35:27.037Z,63.61
2023-05-11T02:38:01.171Z,63.92
2023-05-11T02:40:34.136Z,65.99
2023-05-11T02:43:10.247Z,67.57
2023-05-11T02:45:44.690Z,67.98
2023-05-11T02:48:21.018Z,64.88
2023-05-11T02:50:53.628Z,65.50
2023-05-11T02:53:25.161Z,66.71
2023-05-11T02:55:53.202Z,67.88
2023-05-11T02:58:21.819Z,67.36
2023-05-11T03:00:56.296Z,64.16
2023-05-11T03:03:24.857Z,68.24
2023-05-11T03:05:54.511Z,66.83
2023-05-11T03:08:22.468Z,67.28
2023-05-11T03:10:51.443Z,64.97
2023-05-11T03:13:21.295Z,66.08
2023-05-11T03:15:49.883Z,62.50
2023-05-11T03:18:19.985Z,63.04
2023-05-11T03:20:48.534Z,63.73
2023-05-11T03:23:18.713Z,62.30
2023-05-11T03:25:47.655Z,61.14
2023-05-11T03:28:17.438Z,61.83
2023-05-11T03:30:55.672Z,61.91
2023-05-11T03:33:23.748Z,62.35
2023-05-11T03:35:57.518Z,64.26
2023-05-11T03:38:30.063Z,64.77
2023-05-11T03:41:00.715Z,65.55
2023-05-11T03:43:33.272Z,62.63
2023-05-11T03:46:02.886Z,62.83
2023-05-11T03:48:32.293Z,61.52
2023-05-11T03:51:01.252Z,63.22
2023-05-11T03:53:32.022Z,65.07
2023-05-11T03:56:00.278Z,62.89
2023-05-11T03:58:28.954Z,63.68
2023-05-11T04:00:57.012Z,62.51
2023-05-11T04:03:26.222Z,65.77
2023-05-11T04:05:56.128Z,64.53
2023-05-11T04:08:24.179Z,66.46
2023-05-11T04:10:53.417Z,62.83
2023-05-11T04:13:21.411Z,60.93
2023-05-11T04:15:49.372Z,61.95
2023-05-11T04:18:17.405Z,61.26
2023-05-11T04:20:45.411Z,62.73
2023-05-11T04:23:13.464Z,60.46
2023-05-11T04:25:41.556Z,60.26
2023-05-11T04:28:11.079Z,61.58
2023-05-11T04:30:39.356Z,62.93
2023-05-11T04:33:07.410Z,65.09
2023-05-11T04:35:35.658Z,66.26
2023-05-11T04:38:03.883Z,65.15
2023-05-11T04:40:35.075Z,65.53
2023-05-11T04:43:06.170Z,65.27
2023-05-11T04:45:35.664Z,64.94
2023-05-11T04:48:03.967Z,64.14
2023-05-11T04:50:32.091Z,66.39
2023-05-11T04:53:00.059Z,63.79
2023-05-11T04:55:28.226Z,60.46
2023-05-11T04:57:57.468Z,62.07
2023-05-11T05:00:25.639Z,62.79
2023-05-11T05:02:55.374Z,61.74
2023-05-11T05:05:23.728Z,61.74
2023-05-11T05:07:51.631Z,63.25
2023-05-11T05:10:20.398Z,61.80
2023-05-11T05:12:49.137Z,60.87
2023-05-11T05:15:17.196Z,60.64
2023-05-11T05:17:46.648Z,59.57
2023-05-11T05:20:17.624Z,63.63
2023-05-11T05:22:45.879Z,62.14
2023-05-11T05:25:14.172Z,61.09
2023-05-11T05:27:42.481Z,63.94
2023-05-11T05:30:17.959Z,62.61
2023-05-11T05:32:46.979Z,61.74
2023-05-11T05:35:15.092Z,65.44
2023-05-11T05:37:50.031Z,62.87
2023-05-11T05:40:18.731Z,63.55
2023-05-11T05:42:52.278Z,59.70
2023-05-11T05:45:23.007Z,59.36
2023-05-11T05:47:52.306Z,58.80
2023-05-11T05:50:21.532Z,60.50
2023-05-11T05:52:50.870Z,59.36
2023-05-11T05:55:18.885Z,59.61
2023-05-11T05:57:49.259Z,59.23
2023-05-11T06:00:18.162Z,61.29
2023-05-11T06:02:55.145Z,59.09
2023-05-11T06:05:26.746Z,57.64
2023-05-11T06:08:09.119Z,57.49
2023-05-11T06:10:38.933Z,59.61
2023-05-11T06:13:09.188Z,62.38
2023-05-11T06:15:41.065Z,62.59
2023-05-11T06:18:18.381Z,65.22
2023-05-11T06:20:46.646Z,63.82
2023-05-11T06:23:18.358Z,65.03
2023-05-11T06:25:46.955Z,64.91
2023-05-11T06:28:14.988Z,67.04
2023-05-11T06:30:43.404Z,66.68
2023-05-11T06:33:12.486Z,64.46
2023-05-11T06:35:41.392Z,62.62
2023-05-11T06:38:12.667Z,63.57
2023-05-11T06:40:42.073Z,65.73
2023-05-11T06:43:10.015Z,66.02
2023-05-11T06:45:46.622Z,67.11
2023-05-11T06:48:15.871Z,66.61
2023-05-11T06:50:44.089Z,69.38
2023-05-11T06:53:14.238Z,70.55
2023-05-11T06:55:44.001Z,68.56
2023-05-11T06:58:12.121Z,67.06
2023-05-11T07:00:40.252Z,68.92
2023-05-11T07:03:08.748Z,66.90
2023-05-11T07:05:37.624Z,68.23
2023-05-11T07:08:06.174Z,67.54
2023-05-11T07:10:34.305Z,70.84
2023-05-11T07:13:03.974Z,71.37
2023-05-11T07:15:32.167Z,73.35
2023-05-11T07:18:01.372Z,74.38
2023-05-11T07:20:29.520Z,72.02
2023-05-11T07:22:59.255Z,72.58
2023-05-11T07:25:27.223Z,69.72
2023-05-11T07:27:55.065Z,69.43
2023-05-11T07:30:25.506Z,70.62
2023-05-11T07:32:53.792Z,70.73
2023-05-11T07:35:23.922Z,69.70
2023-05-11T07:37:52.291Z,69.07
2023-05-11T07:40:20.545Z,72.20
2023-05-11T07:42:48.772Z,72.41
2023-05-11T07:45:16.723Z,74.81
2023-05-11T07:47:45.973Z,74.53
2023-05-11T07:50:14.076Z,74.76
2023-05-11T07:52:42.254Z,72.57
2023-05-11T07:55:10.822Z,76.34
2023-05-11T07:57:39.071Z,76.15
2023-05-11T08:00:10.844Z,74.19
2023-05-11T08:02:42.182Z,100.00
2023-05-11T08:05:12.578Z,85.61
2023-05-11T08:07:41.646Z,80.80
2023-05-11T08:10:10.881Z,78.82
2023-05-11T08:12:39.498Z,75.54
2023-05-11T08:15:08.304Z,76.38
2023-05-11T08:17:36.477Z,75.40
2023-05-11T08:20:04.899Z,77.06
2023-05-11T08:22:34.348Z,76.07
2023-05-11T08:25:04.118Z,75.04
2023-05-11T08:27:32.150Z,80.71
2023-05-11T08:30:02.314Z,82.76
2023-05-11T08:32:30.454Z,78.85
2023-05-11T08:34:58.707Z,74.69
2023-05-11T08:37:26.829Z,82.36
2023-05-11T08:39:56.434Z,77.46
2023-05-11T08:42:26.095Z,77.74
2023-05-11T08:44:56.879Z,87.78
2023-05-11T08:47:25.180Z,90.34
2023-05-11T08:49:54.054Z,84.05
2023-05-11T08:52:22.140Z,85.49
2023-05-11T08:54:50.217Z,81.66
2023-05-11T08:57:20.259Z,80.74
2023-05-11T08:59:49.582Z,69.25
2023-05-11T09:02:19.464Z,70.60
2023-05-11T09:04:49.093Z,72.79
2023-05-11T09:07:19.475Z,75.48
2023-05-11T09:09:48.059Z,77.22
2023-05-11T09:12:17.516Z,81.96
2023-05-11T09:14:47.623Z,80.34
2023-05-11T09:17:16.137Z,75.83
2023-05-11T09:20:01.650Z,66.46
2023-05-11T09:22:32.000Z,68.82
2023-05-11T09:25:02.606Z,69.04
2023-05-11T09:27:31.256Z,72.06
2023-05-11T09:30:12.145Z,68.35
2023-05-11T09:32:51.605Z,71.92
2023-05-11T09:35:24.252Z,74.38
2023-05-11T09:38:00.238Z,73.14
2023-05-11T09:40:33.866Z,75.04
2023-05-11T09:43:04.541Z,71.79
2023-05-11T09:45:38.356Z,70.03
2023-05-11T09:48:08.423Z,70.68
2023-05-11T09:50:37.474Z,72.50
2023-05-11T09:53:05.472Z,71.06
2023-05-11T09:55:33.705Z,70.66
2023-05-11T09:58:02.338Z,94.30
2023-05-11T10:00:30.608Z,85.85
2023-05-11T10:03:05.730Z,80.56
2023-05-11T10:05:37.865Z,77.25
2023-05-11T10:08:07.072Z,78.52
2023-05-11T10:10:35.988Z,76.53
2023-05-11T10:13:04.540Z,73.53
2023-05-11T10:15:36.683Z,74.07
2023-05-11T10:18:08.405Z,70.87
2023-05-11T10:20:36.757Z,74.78
2023-05-11T10:23:06.181Z,77.76
2023-05-11T10:25:35.209Z,77.64
2023-05-11T10:28:03.668Z,75.93
2023-05-11T10:30:32.522Z,77.17
2023-05-11T10:33:02.552Z,76.31
2023-05-11T10:35:32.432Z,69.59
2023-05-11T10:38:02.263Z,68.19
2023-05-11T10:40:31.372Z,69.60
2023-05-11T10:43:34.172Z,71.12
2023-05-11T10:46:15.464Z,75.36
2023-05-11T10:49:18.985Z,75.13
2023-05-11T10:52:05.499Z,75.51
2023-05-11T10:54:51.002Z,72.91
2023-05-11T10:57:37.313Z,73.24
2023-05-11T11:00:30.936Z,74.95
2023-05-11T11:02:59.225Z,81.13
2023-05-11T11:05:38.139Z,81.01
2023-05-11T11:08:09.379Z,82.01
2023-05-11T11:10:39.358Z,100.00
2023-05-11T11:13:10.925Z,100.00
2023-05-11T11:16:10.620Z,100.00
2023-05-11T11:18:38.631Z,87.28
2023-05-11T11:21:06.794Z,63.54
2023-05-11T11:23:50.514Z,75.08
2023-05-11T11:26:39.895Z,71.89
2023-05-11T11:29:12.789Z,68.96
2023-05-11T11:31:41.988Z,86.56
2023-05-11T11:34:40.122Z,57.13
2023-05-11T11:37:10.031Z,68.92
2023-05-11T11:39:53.460Z,72.21
2023-05-11T11:42:39.014Z,70.11
2023-05-11T11:45:33.921Z,73.38
2023-05-11T11:48:31.195Z,71.66
2023-05-11T11:51:05.029Z,77.57
2023-05-11T11:54:09.817Z,76.00
2023-05-11T11:56:46.681Z,77.69
2023-05-11T11:59:18.360Z,72.24
2023-05-11T12:01:46.944Z,75.52
2023-05-11T12:04:51.666Z,70.83
2023-05-11T12:07:22.714Z,77.80
2023-05-11T12:09:52.996Z,81.72
2023-05-11T12:12:22.440Z,79.01
2023-05-11T12:14:50.716Z,73.80
2023-05-11T12:17:28.170Z,78.28
2023-05-11T12:19:57.005Z,72.80
2023-05-11T12:22:26.069Z,77.88
2023-05-11T12:25:00.260Z,74.33
2023-05-11T12:27:29.968Z,75.20
2023-05-11T12:29:58.739Z,71.73
2023-05-11T12:32:29.006Z,69.96
2023-05-11T12:35:01.394Z,70.42
2023-05-11T12:37:30.457Z,69.85
2023-05-11T12:39:59.604Z,70.48
2023-05-11T12:42:29.093Z,68.67
2023-05-11T12:44:57.475Z,68.23
2023-05-11T12:47:25.703Z,70.14
2023-05-11T12:49:54.001Z,71.24
2023-05-11T12:52:25.257Z,73.41
2023-05-11T12:54:55.075Z,70.52
2023-05-11T12:57:27.710Z,66.70
2023-05-11T13:00:12.792Z,70.92
2023-05-11T13:02:51.103Z,67.97
2023-05-11T13:05:24.272Z,68.83
2023-05-11T13:07:59.448Z,64.84
2023-05-11T13:10:28.008Z,67.46
2023-05-11T13:12:57.135Z,65.09
2023-05-11T13:15:28.662Z,62.00
2023-05-11T13:17:59.825Z,63.90
2023-05-11T13:20:29.489Z,65.99
2023-05-11T13:23:05.401Z,62.74
2023-05-11T13:25:34.381Z,62.63
2023-05-11T13:28:02.582Z,63.67
2023-05-11T13:30:34.672Z,63.14
2023-05-11T13:33:03.218Z,64.88
2023-05-11T13:35:31.312Z,61.87
2023-05-11T13:37:59.820Z,62.96
2023-05-11T13:40:27.901Z,61.44
2023-05-11T13:42:56.801Z,66.50
2023-05-11T13:45:24.796Z,65.96
2023-05-11T13:47:55.255Z,61.86
2023-05-11T13:50:23.437Z,68.89
2023-05-11T13:52:51.741Z,66.55
2023-05-11T13:55:19.957Z,65.47
2023-05-11T13:57:48.405Z,65.30
2023-05-11T14:00:17.338Z,69.56
2023-05-11T14:02:45.610Z,72.36
2023-05-11T14:05:15.114Z,70.42
2023-05-11T14:07:48.364Z,70.14
2023-05-11T14:10:17.362Z,70.05
2023-05-11T14:12:46.053Z,66.43
2023-05-11T14:15:14.220Z,66.77
2023-05-11T14:17:43.403Z,67.08
2023-05-11T14:20:13.209Z,66.59
2023-05-11T14:22:42.826Z,68.71
2023-05-11T14:25:11.344Z,66.43
2023-05-11T14:27:39.322Z,69.00
2023-05-11T14:30:08.759Z,69.67
2023-05-11T14:32:39.085Z,69.60
2023-05-11T14:35:07.586Z,68.98
2023-05-11T14:37:36.255Z,64.81
2023-05-11T14:40:07.215Z,60.42
2023-05-11T14:42:35.642Z,63.25
2023-05-11T14:45:04.181Z,68.14
2023-05-11T14:47:32.530Z,69.60
2023-05-11T14:50:00.845Z,66.34
2023-05-11T14:52:28.933Z,68.19
2023-05-11T14:54:58.092Z,66.08
2023-05-11T14:57:27.791Z,63.65
2023-05-11T15:00:00.198Z,65.49
2023-05-11T15:02:31.722Z,69.45
2023-05-11T15:04:59.827Z,66.90
2023-05-11T15:07:28.172Z,69.78
2023-05-11T15:09:56.489Z,69.84
2023-05-11T15:12:25.097Z,73.28
2023-05-11T15:14:54.790Z,71.75
2023-05-11T15:17:23.025Z,71.35
2023-05-11T15:19:51.382Z,72.90
2023-05-11T15:22:19.493Z,69.08
2023-05-11T15:24:47.806Z,67.25
2023-05-11T15:27:16.028Z,64.92
2023-05-11T15:29:44.297Z,72.84
2023-05-11T15:32:17.215Z,68.14
2023-05-11T15:34:58.492Z,62.67
2023-05-11T15:37:31.054Z,64.91
2023-05-11T15:39:59.025Z,66.06
2023-05-11T15:42:26.898Z,66.93
2023-05-11T15:44:54.773Z,65.82
2023-05-11T15:47:24.161Z,61.00
2023-05-11T15:49:52.662Z,61.26
2023-05-11T15:52:20.595Z,57.36
2023-05-11T15:54:48.981Z,55.00
2023-05-11T15:57:17.343Z,54.58
2023-05-11T15:59:45.364Z,56.45
2023-05-11T16:02:13.284Z,61.08
2023-05-11T16:04:42.624Z,64.93
2023-05-11T16:07:10.614Z,66.80
2023-05-11T16:09:38.447Z,67.08
2023-05-11T16:12:07.034Z,64.49
2023-05-11T16:14:35.045Z,63.60
2023-05-11T16:17:03.359Z,61.02
2023-05-11T16:19:32.498Z,58.33
2023-05-11T16:22:02.048Z,57.56
2023-05-11T16:24:34.405Z,57.10
2023-05-11T16:27:02.927Z,57.56
2023-05-11T16:29:30.958Z,60.26
2023-05-11T16:31:59.162Z,57.54
2023-05-11T16:34:27.470Z,57.67
2023-05-11T16:36:57.278Z,55.82
2023-05-11T16:39:28.289Z,57.13
2023-05-11T16:41:56.390Z,53.96
2023-05-11T16:44:24.618Z,55.28
2023-05-11T16:46:52.757Z,57.14
2023-05-11T16:49:20.905Z,54.54
2023-05-11T16:51:48.773Z,55.60
2023-05-11T16:54:16.671Z,57.20
2023-05-11T16:56:46.253Z,55.73
2023-05-11T16:59:14.170Z,60.13
2023-05-11T17:01:43.314Z,63.37
2023-05-11T17:04:12.182Z,60.01
2023-05-11T17:06:40.260Z,59.51
2023-05-11T17:09:08.444Z,57.92
2023-05-11T17:11:36.884Z,55.24
2023-05-11T17:14:06.377Z,55.05
2023-05-11T17:16:34.654Z,52.71
2023-05-11T17:19:02.838Z,53.45
2023-05-11T17:21:31.249Z,51.54
2023-05-11T17:23:59.197Z,52.20
2023-05-11T17:26:39.266Z,55.65
2023-05-11T17:29:16.743Z,54.54
2023-05-11T17:31:46.769Z,55.56
2023-05-11T17:34:15.199Z,60.90
2023-05-11T17:36:43.432Z,58.63
2023-05-11T17:39:11.607Z,63.16
2023-05-11T17:41:39.697Z,64.62
2023-05-11T17:44:10.566Z,67.11
2023-05-11T17:46:39.966Z,66.53
2023-05-11T17:49:08.957Z,66.64
2023-05-11T17:51:38.984Z,70.80
2023-05-11T17:54:07.262Z,69.62
2023-05-11T17:56:35.381Z,68.56
2023-05-11T17:59:05.930Z,67.77
2023-05-11T18:01:34.769Z,70.66
2023-05-11T18:04:04.924Z,70.78
2023-05-11T18:06:34.878Z,72.80
2023-05-11T18:09:05.044Z,69.74
2023-05-11T18:14:18.029Z,68.85
2023-05-11T18:17:06.985Z,67.47
2023-05-11T18:19:37.138Z,66.35
2023-05-11T18:22:05.882Z,70.86
2023-05-11T18:24:34.281Z,65.89
2023-05-11T18:27:02.498Z,66.48
2023-05-11T18:29:30.511Z,65.48
2023-05-11T18:31:59.179Z,69.91
2023-05-11T18:34:27.901Z,66.80
2023-05-11T18:36:57.637Z,67.15
2023-05-11T18:39:25.832Z,67.83
2023-05-11T18:41:54.670Z,70.21
2023-05-11T18:44:22.812Z,65.66
2023-05-11T18:46:51.041Z,65.43
2023-05-11T18:49:19.213Z,64.99
2023-05-11T18:51:47.471Z,64.94
2023-05-11T18:54:16.862Z,64.36
2023-05-11T18:56:45.018Z,62.66
2023-05-11T18:59:13.005Z,63.66
2023-05-11T19:04:16.474Z,65.95
2023-05-11T19:06:44.531Z,66.21
2023-05-11T19:09:12.595Z,62.83
2023-05-11T19:11:42.024Z,63.96
2023-05-11T19:14:10.477Z,63.58
2023-05-11T19:16:38.610Z,62.57
2023-05-11T19:19:07.233Z,63.01
2023-05-11T19:21:40.011Z,63.96
2023-05-11T19:24:09.270Z,67.01
2023-05-11T19:26:38.320Z,64.15
2023-05-11T19:29:09.463Z,63.45
2023-05-11T19:31:37.517Z,63.43
2023-05-11T19:34:06.764Z,60.85
2023-05-11T19:36:41.213Z,62.31
2023-05-11T19:39:16.969Z,59.75
2023-05-11T19:41:45.725Z,58.11
2023-05-11T19:44:15.530Z,57.97
2023-05-11T19:46:46.722Z,58.76
2023-05-11T19:49:16.475Z,60.30
2023-05-11T19:51:44.681Z,58.38
2023-05-11T19:54:16.172Z,58.81
2023-05-11T19:56:44.297Z,63.00
2023-05-11T19:59:12.239Z,59.99
2023-05-11T20:01:41.561Z,62.47
2023-05-11T20:04:09.479Z,64.12
2023-05-11T20:06:37.440Z,62.52
2023-05-11T20:09:06.749Z,61.64
2023-05-11T20:11:34.695Z,59.38
2023-05-11T20:14:02.879Z,59.91
2023-05-11T20:16:31.572Z,59.80
2023-05-11T20:19:01.033Z,60.15
2023-05-11T20:21:29.265Z,60.44
2023-05-11T20:23:57.357Z,59.42
2023-05-11T20:26:26.134Z,59.35
2023-05-11T20:28:54.506Z,60.34
2023-05-11T20:31:22.996Z,59.55
2023-05-11T20:36:23.786Z,60.84
2023-05-11T20:38:53.746Z,61.94
2023-05-11T20:41:23.147Z,61.34
2023-05-11T20:43:51.198Z,62.47
2023-05-11T20:46:19.186Z,65.16
2023-05-11T20:48:51.549Z,64.34
2023-05-11T20:51:23.075Z,64.16
2023-05-11T20:53:53.690Z,62.91
2023-05-11T20:56:21.929Z,61.71
2023-05-11T20:58:50.565Z,59.53
2023-05-11T21:01:18.972Z,58.95
2023-05-11T21:03:47.078Z,59.11
2023-05-11T21:06:15.854Z,59.37
2023-05-11T21:08:44.171Z,59.29
2023-05-11T21:11:13.436Z,61.14
2023-05-11T21:13:41.569Z,60.62
2023-05-11T21:16:09.617Z,61.76
2023-05-11T21:18:37.592Z,59.88
2023-05-11T21:21:05.737Z,62.91
2023-05-11T21:23:34.311Z,62.18
2023-05-11T21:26:03.200Z,62.31
2023-05-11T21:28:34.750Z,63.52
2023-05-11T21:31:02.815Z,62.59
2023-05-11T21:33:30.706Z,62.25
2023-05-11T21:35:58.819Z,63.80
2023-05-11T21:38:26.880Z,61.96
2023-05-11T21:40:56.539Z,62.07
2023-05-11T21:43:24.536Z,60.14
2023-05-11T21:45:53.836Z,59.76
2023-05-11T21:48:22.575Z,59.48
2023-05-11T21:50:54.336Z,59.52
2023-05-11T21:53:23.232Z,61.38
2023-05-11T21:55:51.495Z,59.02
2023-05-11T21:58:19.519Z,59.77
2023-05-11T22:00:47.377Z,60.10
2023-05-11T22:03:16.819Z,58.49
2023-05-11T22:05:44.743Z,59.67
2023-05-11T22:08:15.353Z,59.10
2023-05-11T22:10:46.371Z,59.64
2023-05-11T22:13:14.309Z,59.60
2023-05-11T22:15:42.469Z,60.23
2023-05-11T22:18:10.684Z,59.21
2023-05-11T22:20:40.271Z,58.14
2023-05-11T22:23:08.205Z,58.86
2023-05-11T22:25:36.130Z,57.42
2023-05-11T22:28:04.325Z,58.11
2023-05-11T22:30:32.497Z,57.52
2023-05-11T22:33:00.948Z,57.71
2023-05-11T22:35:29.179Z,58.21
2023-05-11T22:37:58.674Z,57.81
2023-05-11T22:40:26.491Z,57.28
2023-05-11T22:42:54.376Z,58.08
2023-05-11T22:45:22.259Z,60.35
2023-05-11T22:47:50.290Z,60.53
2023-05-11T22:50:18.490Z,59.17
2023-05-11T22:52:47.275Z,58.74
2023-05-11T22:55:16.956Z,58.56
2023-05-11T22:57:45.082Z,58.53
2023-05-11T23:00:14.022Z,57.88
2023-05-11T23:02:43.059Z,58.23
2023-05-11T23:05:11.501Z,58.17
2023-05-11T23:07:39.428Z,57.40
2023-05-11T23:10:08.042Z,57.16
2023-05-11T23:12:40.935Z,57.36
2023-05-11T23:15:10.735Z,57.29
2023-05-11T23:17:38.785Z,58.30
2023-05-11T23:20:08.534Z,57.22
2023-05-11T23:22:39.330Z,58.32
2023-05-11T23:25:08.152Z,58.81
2023-05-11T23:27:37.553Z,63.34
2023-05-11T23:30:06.289Z,61.57
2023-05-11T23:32:34.276Z,61.71
2023-05-11T23:35:02.202Z,60.33
2023-05-11T23:37:30.258Z,59.72
2023-05-11T23:39:58.321Z,61.85
2023-05-11T23:42:26.190Z,65.29
2023-05-11T23:44:55.516Z,63.68
2023-05-11T23:47:23.631Z,61.44
2023-05-11T23:49:51.588Z,61.66
2023-05-11T23:52:19.552Z,63.55
2023-05-11T23:54:47.424Z,63.55
2023-05-11T23:57:15.368Z,62.72
2023-05-11T23:59:43.269Z,64.13
